»·PEaware :: N171CP L88-KSBP

N171CP :: L88-KSBP

FLIGHT INFORMATION

Flight Status: Arrived
Operator: Privately registered:
United States
More flights under this callsign
Pilot: Dwight D. (26772)
Aircraft: CESSNA 172 SKYHAWK
(C172)
More flights by this aircraft type
Origin: L88 New Cuyama
United States
Destination: KSBP San Luis Co Regl
United States
More flights between these airports :: More routes between these airports
Route:
File this flight plan on PilotEdge
Remarks:
Altitude:
(Current/Filed)
3,500ft
Speed:
(Current/Filed)
110kts
Departed: 25-Nov-19 06:29 PM
Arrived: 25-Nov-19 07:22 PM
Distance/Time
Traveled:
51nm/0:53
Distance/Time
To Go:
Arrived

Flight Plot

Page will automatically refresh every two minutes.


Map Options




Map Legend


Flown Route
Filed Route
Departure Airport
Arrival Airport
Navaid (VOR, NDB)
Fix

Horizontal Profiles

Position Reports

Time Latitude Longitude Heading Altitude Ground
Speed
25-Nov-19 18:18 33.799650 -118.332986 308 103ft 0kts
25-Nov-19 18:19 33.799650 -118.332986 308 103ft 0kts
25-Nov-19 18:20 33.799650 -118.332986 308 103ft 0kts
25-Nov-19 18:21 33.799650 -118.332986 308 103ft 0kts
25-Nov-19 18:22 33.799650 -118.332986 308 103ft 0kts
25-Nov-19 18:23 33.799650 -118.332986 308 103ft 0kts
25-Nov-19 18:24 33.799650 -118.332986 308 103ft 0kts
25-Nov-19 18:25 33.799650 -118.332986 308 103ft 0kts
25-Nov-19 18:26 33.799650 -118.332986 308 103ft 0kts
25-Nov-19 18:28 34.996147 -119.866740 293 3500ft 109kts
25-Nov-19 18:29 35.006083 -119.897287 295 3503ft 109kts
25-Nov-19 18:30 35.018380 -119.931709 291 3414ft 111kts
25-Nov-19 18:31 35.022387 -119.962409 244 4037ft 90kts
25-Nov-19 18:32 35.024204 -119.983437 314 4674ft 76kts
25-Nov-19 18:33 35.039458 -120.000253 312 5340ft 70kts
25-Nov-19 18:34 35.045244 -120.025134 286 5519ft 95kts
25-Nov-19 18:35 35.054080 -120.054958 290 5500ft 99kts
25-Nov-19 18:36 35.062829 -120.082791 290 5500ft 99kts
25-Nov-19 18:37 35.072781 -120.114420 290 5500ft 99kts
25-Nov-19 18:38 35.082673 -120.145888 290 5500ft 99kts
25-Nov-19 18:39 35.092677 -120.177746 290 5500ft 99kts
25-Nov-19 18:40 35.102558 -120.209248 290 5500ft 99kts
25-Nov-19 18:41 35.112483 -120.240923 290 5500ft 99kts
25-Nov-19 18:42 35.122438 -120.272729 290 5500ft 99kts
25-Nov-19 18:43 35.131974 -120.303228 290 5500ft 99kts
25-Nov-19 18:44 35.141531 -120.333828 290 5500ft 99kts
25-Nov-19 18:45 35.150615 -120.362945 290 5500ft 99kts
25-Nov-19 18:46 35.160050 -120.393332 290 5235ft 96kts
25-Nov-19 18:47 35.163212 -120.425522 258 4633ft 100kts
25-Nov-19 18:48 35.153501 -120.458205 254 4111ft 100kts
25-Nov-19 18:49 35.144341 -120.486873 252 4010ft 86kts
25-Nov-19 18:50 35.139247 -120.511542 265 3990ft 80kts
25-Nov-19 18:51 35.127297 -120.540549 249 2580ft 102kts
25-Nov-19 18:52 35.116206 -120.572698 250 1470ft 109kts
25-Nov-19 18:53 35.104799 -120.600211 222 997ft 71kts
25-Nov-19 18:54 35.085710 -120.601157 209 735ft 53kts
25-Nov-19 18:55 35.091174 -120.614818 344 419ft 67kts
25-Nov-19 18:56 35.102590 -120.623999 347 17ft 11kts
25-Nov-19 18:57 35.102836 -120.624324 304 17ft 0kts
25-Nov-19 18:58 35.102836 -120.624324 304 17ft 0kts
25-Nov-19 18:59 35.102836 -120.624324 304 17ft 0kts
25-Nov-19 19:01 35.102836 -120.624325 304 17ft 0kts
25-Nov-19 19:02 35.102836 -120.624325 304 17ft 0kts
25-Nov-19 19:03 35.102837 -120.624326 304 17ft 0kts
25-Nov-19 19:04 35.103010 -120.624907 112 17ft 0kts
25-Nov-19 19:05 35.103010 -120.624906 112 17ft 0kts
25-Nov-19 19:06 35.103010 -120.624906 112 17ft 0kts
25-Nov-19 19:07 35.094780 -120.610986 126 325ft 83kts
25-Nov-19 19:08 35.081476 -120.586866 105 1082ft 98kts
25-Nov-19 19:09 35.079370 -120.551441 87 1555ft 105kts
25-Nov-19 19:10 35.091179 -120.523101 14 2053ft 99kts
25-Nov-19 19:11 35.115390 -120.516906 58 2470ft 112kts
25-Nov-19 19:12 35.122965 -120.481513 61 2933ft 105kts
25-Nov-19 19:13 35.141277 -120.464663 296 3092ft 98kts
25-Nov-19 19:14 35.147463 -120.495076 294 2616ft 100kts
25-Nov-19 19:15 35.160674 -120.525178 303 2992ft 98kts
25-Nov-19 19:16 35.177994 -120.550652 313 3377ft 92kts
25-Nov-19 19:17 35.195713 -120.574794 307 2799ft 98kts
25-Nov-19 19:18 35.209126 -120.596847 306 1993ft 75kts
25-Nov-19 19:19 35.221093 -120.616275 312 1061ft 63kts
25-Nov-19 19:20 35.232656 -120.633289 306 236ft 57kts
25-Nov-19 19:21 35.237326 -120.641403 297 215ft 15kts
25-Nov-19 19:22 35.238184 -120.644820 274 215ft 0kts
25-Nov-19 19:23 35.238184 -120.644821 274 215ft 0kts
25-Nov-19 19:24 35.238184 -120.644823 274 215ft 0kts
25-Nov-19 19:25 35.237510 -120.650747 337 215ft 0kts

Navigation Log

Ident Type
Flight plan parsing failed, navigation log unavailable